Aspen Park, Colorado
Current Conditions -  °F | °C
As of 2:53 AM on Saturday 25 Oct 2014 (Local Time) from KAPA Reporting Station
Clear Clear  
Wind Chill: 50°   Ceiling: Unl
Heat Index: 50°   Visibility: 10mi
Dew Point: 23°   Wind: 9mph
Humidity: 35%   Direction: 170°S
Pressure: 30.24"   Gusts: NA
Location:  39.4975°N, 105.289°W
Report Text: KAPA 250853Z 17008KT 10SM CLR 10/M05 A3024 RMK AO2 SLP186 T01001050 55000
Loading
Personal Weather Stations






























Interactive Weather Map
Tropical Storm Tracking
New forecast layout! Learn more

10-Day Weather Forecast

Advertisements
Track Severe Weather on mobile